Terminal Aerodrome Forecast
Issued by NWS

Home | Current Version | Previous Version | Text Only | Print | Product List | Glossary On
Versions: 1 2 3 4 5 6 7 8 9 10 11 12 13 14 15 16 17 18 19 20 21 22
000
FTUS43 KBIS 291139
TAFJMS
TAF
KJMS 291139Z 2912/3012 01021G27KT P6SM OVC012
      TEMPO 2916/2918 SCT015 BKN025
     FM291800 36017G25KT P6SM SCT045
     FM292200 36015G22KT P6SM SKC
     FM300100 02007KT P6SM SKC=

USA.gov is the U.S. government's official web portal to all federal, state and local government web resources and services.